sensor_id;sensor_type;location;lat;lon;timestamp;P1;durP1;ratioP1;P2;durP2;ratioP2
12623;SDS011;6377;42.836;23.998;2023-06-19T00:01:26;9.70;;;8.70;;
12623;SDS011;6377;42.836;23.998;2023-06-19T00:03:53;10.43;;;8.57;;
12623;SDS011;6377;42.836;23.998;2023-06-19T00:06:20;10.50;;;8.43;;
12623;SDS011;6377;42.836;23.998;2023-06-19T00:08:49;11.43;;;8.57;;
12623;SDS011;6377;42.836;23.998;2023-06-19T00:11:16;9.53;;;8.00;;
12623;SDS011;6377;42.836;23.998;2023-06-19T00:13:43;9.37;;;8.20;;
12623;SDS011;6377;42.836;23.998;2023-06-19T00:16:11;10.67;;;8.87;;
12623;SDS011;6377;42.836;23.998;2023-06-19T00:18:38;9.70;;;8.70;;
12623;SDS011;6377;42.836;23.998;2023-06-19T00:21:06;9.43;;;8.47;;
12623;SDS011;6377;42.836;23.998;2023-06-19T00:23:33;9.47;;;8.30;;
12623;SDS011;6377;42.836;23.998;2023-06-19T00:26:02;9.73;;;8.67;;
12623;SDS011;6377;42.836;23.998;2023-06-19T00:28:29;11.03;;;8.13;;
12623;SDS011;6377;42.836;23.998;2023-06-19T00:30:57;11.80;;;8.70;;
12623;SDS011;6377;42.836;23.998;2023-06-19T00:33:24;9.40;;;8.10;;
12623;SDS011;6377;42.836;23.998;2023-06-19T00:35:52;9.03;;;8.13;;
12623;SDS011;6377;42.836;23.998;2023-06-19T00:38:20;10.87;;;8.20;;
12623;SDS011;6377;42.836;23.998;2023-06-19T00:40:49;9.30;;;8.23;;
12623;SDS011;6377;42.836;23.998;2023-06-19T00:43:17;10.33;;;8.27;;
12623;SDS011;6377;42.836;23.998;2023-06-19T00:45:45;9.23;;;8.23;;
12623;SDS011;6377;42.836;23.998;2023-06-19T00:48:12;9.17;;;8.20;;
12623;SDS011;6377;42.836;23.998;2023-06-19T00:50:39;11.27;;;8.03;;
12623;SDS011;6377;42.836;23.998;2023-06-19T00:53:06;9.57;;;7.80;;
12623;SDS011;6377;42.836;23.998;2023-06-19T00:55:34;11.07;;;8.03;;
12623;SDS011;6377;42.836;23.998;2023-06-19T00:58:04;9.43;;;8.03;;
12623;SDS011;6377;42.836;23.998;2023-06-19T01:00:34;9.80;;;8.33;;
12623;SDS011;6377;42.836;23.998;2023-06-19T01:03:01;10.67;;;8.33;;
12623;SDS011;6377;42.836;23.998;2023-06-19T01:05:30;10.47;;;7.87;;
12623;SDS011;6377;42.836;23.998;2023-06-19T01:07:59;12.60;;;8.00;;
12623;SDS011;6377;42.836;23.998;2023-06-19T01:10:31;9.33;;;7.97;;
12623;SDS011;6377;42.836;23.998;2023-06-19T01:13:06;9.17;;;8.27;;
12623;SDS011;6377;42.836;23.998;2023-06-19T01:15:38;9.97;;;8.17;;
12623;SDS011;6377;42.836;23.998;2023-06-19T01:18:08;10.47;;;8.20;;
12623;SDS011;6377;42.836;23.998;2023-06-19T01:20:37;10.90;;;8.13;;
12623;SDS011;6377;42.836;23.998;2023-06-19T01:23:07;10.43;;;7.63;;
12623;SDS011;6377;42.836;23.998;2023-06-19T01:25:36;8.83;;;7.83;;
12623;SDS011;6377;42.836;23.998;2023-06-19T01:28:05;8.80;;;7.90;;
12623;SDS011;6377;42.836;23.998;2023-06-19T01:30:36;10.30;;;8.37;;
12623;SDS011;6377;42.836;23.998;2023-06-19T01:33:07;9.97;;;7.90;;
12623;SDS011;6377;42.836;23.998;2023-06-19T01:35:38;9.33;;;8.03;;
12623;SDS011;6377;42.836;23.998;2023-06-19T01:38:10;12.07;;;8.67;;
12623;SDS011;6377;42.836;23.998;2023-06-19T01:40:39;10.33;;;9.00;;
12623;SDS011;6377;42.836;23.998;2023-06-19T01:43:07;10.83;;;9.37;;
12623;SDS011;6377;42.836;23.998;2023-06-19T01:45:36;9.60;;;8.60;;
12623;SDS011;6377;42.836;23.998;2023-06-19T01:48:04;11.13;;;9.40;;
12623;SDS011;6377;42.836;23.998;2023-06-19T01:50:31;9.53;;;8.47;;
12623;SDS011;6377;42.836;23.998;2023-06-19T01:52:58;9.07;;;8.17;;
12623;SDS011;6377;42.836;23.998;2023-06-19T01:55:27;12.77;;;9.03;;
12623;SDS011;6377;42.836;23.998;2023-06-19T01:57:55;9.40;;;8.23;;
12623;SDS011;6377;42.836;23.998;2023-06-19T02:00:22;9.33;;;8.40;;
12623;SDS011;6377;42.836;23.998;2023-06-19T02:02:49;9.60;;;7.97;;
12623;SDS011;6377;42.836;23.998;2023-06-19T02:05:17;10.80;;;7.27;;
12623;SDS011;6377;42.836;23.998;2023-06-19T02:07:44;8.77;;;7.87;;
12623;SDS011;6377;42.836;23.998;2023-06-19T02:10:11;11.40;;;8.47;;
12623;SDS011;6377;42.836;23.998;2023-06-19T02:12:40;9.77;;;8.13;;
12623;SDS011;6377;42.836;23.998;2023-06-19T02:15:08;11.30;;;8.17;;
12623;SDS011;6377;42.836;23.998;2023-06-19T02:17:35;12.77;;;9.27;;
12623;SDS011;6377;42.836;23.998;2023-06-19T02:20:03;10.20;;;9.17;;
12623;SDS011;6377;42.836;23.998;2023-06-19T02:22:33;12.50;;;8.30;;
12623;SDS011;6377;42.836;23.998;2023-06-19T02:25:00;10.47;;;8.40;;
12623;SDS011;6377;42.836;23.998;2023-06-19T02:27:27;8.30;;;7.43;;
12623;SDS011;6377;42.836;23.998;2023-06-19T02:29:56;10.87;;;7.37;;
12623;SDS011;6377;42.836;23.998;2023-06-19T02:32:23;8.47;;;7.67;;
12623;SDS011;6377;42.836;23.998;2023-06-19T02:34:51;9.03;;;8.13;;
12623;SDS011;6377;42.836;23.998;2023-06-19T02:37:18;9.27;;;8.30;;
12623;SDS011;6377;42.836;23.998;2023-06-19T02:39:45;9.30;;;7.67;;
12623;SDS011;6377;42.836;23.998;2023-06-19T02:42:12;7.83;;;7.03;;
12623;SDS011;6377;42.836;23.998;2023-06-19T02:44:40;10.00;;;6.63;;
12623;SDS011;6377;42.836;23.998;2023-06-19T02:47:09;10.60;;;8.07;;
12623;SDS011;6377;42.836;23.998;2023-06-19T02:49:36;16.47;;;8.33;;
12623;SDS011;6377;42.836;23.998;2023-06-19T02:52:04;7.93;;;7.13;;
12623;SDS011;6377;42.836;23.998;2023-06-19T02:54:32;8.07;;;7.13;;
12623;SDS011;6377;42.836;23.998;2023-06-19T02:56:59;8.07;;;7.23;;
12623;SDS011;6377;42.836;23.998;2023-06-19T02:59:26;9.07;;;7.50;;
12623;SDS011;6377;42.836;23.998;2023-06-19T03:01:53;9.73;;;8.00;;
12623;SDS011;6377;42.836;23.998;2023-06-19T03:04:22;8.77;;;7.13;;
12623;SDS011;6377;42.836;23.998;2023-06-19T03:06:49;8.03;;;6.60;;
12623;SDS011;6377;42.836;23.998;2023-06-19T03:09:17;7.43;;;6.70;;
12623;SDS011;6377;42.836;23.998;2023-06-19T03:11:44;9.47;;;6.57;;
12623;SDS011;6377;42.836;23.998;2023-06-19T03:14:11;8.47;;;7.50;;
12623;SDS011;6377;42.836;23.998;2023-06-19T03:16:38;11.67;;;7.13;;
12623;SDS011;6377;42.836;23.998;2023-06-19T03:19:06;7.73;;;6.47;;
12623;SDS011;6377;42.836;23.998;2023-06-19T03:21:34;7.80;;;7.00;;
12623;SDS011;6377;42.836;23.998;2023-06-19T03:24:02;6.70;;;6.00;;
12623;SDS011;6377;42.836;23.998;2023-06-19T03:26:29;9.90;;;7.13;;
12623;SDS011;6377;42.836;23.998;2023-06-19T03:28:56;8.83;;;6.43;;
12623;SDS011;6377;42.836;23.998;2023-06-19T03:31:24;8.50;;;7.37;;
12623;SDS011;6377;42.836;23.998;2023-06-19T03:33:51;8.13;;;7.10;;
12623;SDS011;6377;42.836;23.998;2023-06-19T03:36:18;8.77;;;7.87;;
12623;SDS011;6377;42.836;23.998;2023-06-19T03:38:46;8.03;;;7.03;;
12623;SDS011;6377;42.836;23.998;2023-06-19T03:41:14;7.80;;;6.83;;
12623;SDS011;6377;42.836;23.998;2023-06-19T03:43:41;7.57;;;6.47;;
12623;SDS011;6377;42.836;23.998;2023-06-19T03:46:09;7.63;;;6.77;;
12623;SDS011;6377;42.836;23.998;2023-06-19T03:48:36;9.53;;;6.70;;
12623;SDS011;6377;42.836;23.998;2023-06-19T03:51:03;7.70;;;6.67;;
12623;SDS011;6377;42.836;23.998;2023-06-19T03:53:31;6.87;;;6.27;;
12623;SDS011;6377;42.836;23.998;2023-06-19T03:55:59;7.93;;;6.17;;
12623;SDS011;6377;42.836;23.998;2023-06-19T03:58:26;7.30;;;6.53;;
12623;SDS011;6377;42.836;23.998;2023-06-19T04:00:54;7.03;;;6.33;;
12623;SDS011;6377;42.836;23.998;2023-06-19T04:03:21;7.77;;;6.77;;
12623;SDS011;6377;42.836;23.998;2023-06-19T04:05:48;10.53;;;7.47;;
12623;SDS011;6377;42.836;23.998;2023-06-19T04:08:15;7.87;;;6.90;;
12623;SDS011;6377;42.836;23.998;2023-06-19T04:10:43;8.10;;;6.80;;
12623;SDS011;6377;42.836;23.998;2023-06-19T04:13:11;9.77;;;6.67;;
12623;SDS011;6377;42.836;23.998;2023-06-19T04:15:39;7.10;;;6.40;;
12623;SDS011;6377;42.836;23.998;2023-06-19T04:18:09;9.97;;;6.70;;
12623;SDS011;6377;42.836;23.998;2023-06-19T04:20:36;8.53;;;6.60;;
12623;SDS011;6377;42.836;23.998;2023-06-19T04:23:03;13.63;;;6.57;;
12623;SDS011;6377;42.836;23.998;2023-06-19T04:25:31;7.80;;;6.30;;
12623;SDS011;6377;42.836;23.998;2023-06-19T04:27:58;9.53;;;6.70;;
12623;SDS011;6377;42.836;23.998;2023-06-19T04:30:26;10.20;;;6.30;;
12623;SDS011;6377;42.836;23.998;2023-06-19T04:32:54;10.67;;;6.10;;
12623;SDS011;6377;42.836;23.998;2023-06-19T04:35:21;8.23;;;6.57;;
12623;SDS011;6377;42.836;23.998;2023-06-19T04:37:49;7.30;;;6.47;;
12623;SDS011;6377;42.836;23.998;2023-06-19T04:40:16;10.67;;;6.30;;
12623;SDS011;6377;42.836;23.998;2023-06-19T04:42:43;9.40;;;6.03;;
12623;SDS011;6377;42.836;23.998;2023-06-19T04:45:10;8.77;;;6.27;;
12623;SDS011;6377;42.836;23.998;2023-06-19T04:47:39;6.97;;;6.27;;
12623;SDS011;6377;42.836;23.998;2023-06-19T04:50:07;7.30;;;5.97;;
12623;SDS011;6377;42.836;23.998;2023-06-19T04:52:34;6.43;;;5.67;;
12623;SDS011;6377;42.836;23.998;2023-06-19T04:55:04;8.10;;;6.07;;
12623;SDS011;6377;42.836;23.998;2023-06-19T04:57:34;7.13;;;6.43;;
12623;SDS011;6377;42.836;23.998;2023-06-19T05:00:02;7.43;;;6.40;;
12623;SDS011;6377;42.836;23.998;2023-06-19T05:02:31;7.17;;;6.07;;
12623;SDS011;6377;42.836;23.998;2023-06-19T05:05:00;7.43;;;5.97;;
12623;SDS011;6377;42.836;23.998;2023-06-19T05:07:28;7.30;;;6.03;;
12623;SDS011;6377;42.836;23.998;2023-06-19T05:09:56;7.20;;;6.50;;
12623;SDS011;6377;42.836;23.998;2023-06-19T05:12:23;7.97;;;6.53;;
12623;SDS011;6377;42.836;23.998;2023-06-19T05:14:50;8.87;;;7.07;;
12623;SDS011;6377;42.836;23.998;2023-06-19T05:17:17;6.10;;;5.50;;
12623;SDS011;6377;42.836;23.998;2023-06-19T05:19:45;7.43;;;6.00;;
12623;SDS011;6377;42.836;23.998;2023-06-19T05:22:13;7.07;;;6.37;;
12623;SDS011;6377;42.836;23.998;2023-06-19T05:24:43;7.80;;;7.00;;
12623;SDS011;6377;42.836;23.998;2023-06-19T05:27:10;7.07;;;6.37;;
12623;SDS011;6377;42.836;23.998;2023-06-19T05:29:37;7.03;;;6.20;;
12623;SDS011;6377;42.836;23.998;2023-06-19T05:32:05;7.33;;;6.63;;
12623;SDS011;6377;42.836;23.998;2023-06-19T05:34:32;12.43;;;7.13;;
12623;SDS011;6377;42.836;23.998;2023-06-19T05:37:00;8.83;;;6.43;;
12623;SDS011;6377;42.836;23.998;2023-06-19T05:39:30;10.18;;;7.05;;
12623;SDS011;6377;42.836;23.998;2023-06-19T05:41:57;8.40;;;6.60;;
12623;SDS011;6377;42.836;23.998;2023-06-19T05:44:25;8.80;;;6.37;;
12623;SDS011;6377;42.836;23.998;2023-06-19T05:46:52;8.20;;;6.43;;
12623;SDS011;6377;42.836;23.998;2023-06-19T05:49:19;7.67;;;6.33;;
12623;SDS011;6377;42.836;23.998;2023-06-19T05:51:46;8.33;;;6.57;;
12623;SDS011;6377;42.836;23.998;2023-06-19T05:54:14;7.57;;;6.63;;
12623;SDS011;6377;42.836;23.998;2023-06-19T05:56:44;8.43;;;6.97;;
12623;SDS011;6377;42.836;23.998;2023-06-19T05:59:12;7.87;;;6.63;;
12623;SDS011;6377;42.836;23.998;2023-06-19T06:01:40;7.10;;;6.17;;
12623;SDS011;6377;42.836;23.998;2023-06-19T06:04:07;6.97;;;6.17;;
12623;SDS011;6377;42.836;23.998;2023-06-19T06:06:34;7.47;;;6.00;;
12623;SDS011;6377;42.836;23.998;2023-06-19T06:09:02;9.30;;;6.37;;
12623;SDS011;6377;42.836;23.998;2023-06-19T06:11:29;11.23;;;6.33;;
12623;SDS011;6377;42.836;23.998;2023-06-19T06:13:58;6.37;;;5.60;;
12623;SDS011;6377;42.836;23.998;2023-06-19T06:16:25;6.67;;;5.93;;
12623;SDS011;6377;42.836;23.998;2023-06-19T06:18:52;6.53;;;5.50;;
12623;SDS011;6377;42.836;23.998;2023-06-19T06:21:19;6.20;;;5.60;;
12623;SDS011;6377;42.836;23.998;2023-06-19T06:23:47;7.50;;;6.07;;
12623;SDS011;6377;42.836;23.998;2023-06-19T06:26:14;6.65;;;5.95;;
12623;SDS011;6377;42.836;23.998;2023-06-19T06:28:41;7.57;;;5.70;;
12623;SDS011;6377;42.836;23.998;2023-06-19T06:31:10;7.45;;;5.30;;
12623;SDS011;6377;42.836;23.998;2023-06-19T06:33:37;5.28;;;4.70;;
12623;SDS011;6377;42.836;23.998;2023-06-19T06:36:04;6.05;;;4.80;;
12623;SDS011;6377;42.836;23.998;2023-06-19T06:38:32;5.85;;;4.40;;
12623;SDS011;6377;42.836;23.998;2023-06-19T06:40:59;6.03;;;4.57;;
12623;SDS011;6377;42.836;23.998;2023-06-19T06:43:26;5.93;;;4.80;;
12623;SDS011;6377;42.836;23.998;2023-06-19T06:45:53;8.63;;;4.95;;
12623;SDS011;6377;42.836;23.998;2023-06-19T06:48:22;5.30;;;4.78;;
12623;SDS011;6377;42.836;23.998;2023-06-19T06:50:49;6.97;;;6.25;;
12623;SDS011;6377;42.836;23.998;2023-06-19T06:53:18;5.10;;;4.60;;
12623;SDS011;6377;42.836;23.998;2023-06-19T06:55:45;6.03;;;4.95;;
12623;SDS011;6377;42.836;23.998;2023-06-19T06:58:12;5.07;;;4.57;;
12623;SDS011;6377;42.836;23.998;2023-06-19T07:00:39;4.80;;;4.30;;
12623;SDS011;6377;42.836;23.998;2023-06-19T07:03:07;5.25;;;4.47;;
12623;SDS011;6377;42.836;23.998;2023-06-19T07:05:35;5.05;;;4.60;;
12623;SDS011;6377;42.836;23.998;2023-06-19T07:08:03;5.45;;;4.80;;
12623;SDS011;6377;42.836;23.998;2023-06-19T07:10:30;5.45;;;4.40;;
12623;SDS011;6377;42.836;23.998;2023-06-19T07:12:57;4.65;;;4.25;;
12623;SDS011;6377;42.836;23.998;2023-06-19T07:15:24;6.53;;;4.60;;
12623;SDS011;6377;42.836;23.998;2023-06-19T07:17:52;5.22;;;4.40;;
12623;SDS011;6377;42.836;23.998;2023-06-19T07:20:19;5.03;;;4.53;;
12623;SDS011;6377;42.836;23.998;2023-06-19T07:22:50;7.00;;;4.80;;
12623;SDS011;6377;42.836;23.998;2023-06-19T07:25:17;5.00;;;4.60;;
12623;SDS011;6377;42.836;23.998;2023-06-19T07:27:44;5.65;;;4.53;;
12623;SDS011;6377;42.836;23.998;2023-06-19T07:30:12;5.07;;;4.30;;
12623;SDS011;6377;42.836;23.998;2023-06-19T07:32:40;5.03;;;4.60;;
12623;SDS011;6377;42.836;23.998;2023-06-19T07:35:07;4.85;;;4.22;;
12623;SDS011;6377;42.836;23.998;2023-06-19T07:37:36;5.40;;;4.90;;
12623;SDS011;6377;42.836;23.998;2023-06-19T07:40:05;5.10;;;4.60;;
12623;SDS011;6377;42.836;23.998;2023-06-19T07:42:33;5.47;;;4.40;;
12623;SDS011;6377;42.836;23.998;2023-06-19T07:45:01;5.88;;;4.50;;
12623;SDS011;6377;42.836;23.998;2023-06-19T07:47:28;5.10;;;4.65;;
12623;SDS011;6377;42.836;23.998;2023-06-19T07:49:55;5.75;;;4.05;;
12623;SDS011;6377;42.836;23.998;2023-06-19T07:52:23;5.60;;;4.57;;
12623;SDS011;6377;42.836;23.998;2023-06-19T07:54:50;6.28;;;4.57;;
12623;SDS011;6377;42.836;23.998;2023-06-19T07:57:20;5.88;;;4.55;;
12623;SDS011;6377;42.836;23.998;2023-06-19T07:59:48;5.78;;;4.90;;
12623;SDS011;6377;42.836;23.998;2023-06-19T08:02:16;5.25;;;4.75;;
12623;SDS011;6377;42.836;23.998;2023-06-19T08:04:44;5.03;;;4.53;;
12623;SDS011;6377;42.836;23.998;2023-06-19T08:07:12;5.15;;;4.65;;
12623;SDS011;6377;42.836;23.998;2023-06-19T08:09:39;4.78;;;4.38;;
12623;SDS011;6377;42.836;23.998;2023-06-19T08:12:07;5.60;;;4.78;;
12623;SDS011;6377;42.836;23.998;2023-06-19T08:14:35;9.25;;;5.32;;
12623;SDS011;6377;42.836;23.998;2023-06-19T08:17:04;6.15;;;5.32;;
12623;SDS011;6377;42.836;23.998;2023-06-19T08:19:34;6.53;;;5.10;;
12623;SDS011;6377;42.836;23.998;2023-06-19T08:22:01;6.07;;;4.78;;
12623;SDS011;6377;42.836;23.998;2023-06-19T08:24:29;5.82;;;5.30;;
12623;SDS011;6377;42.836;23.998;2023-06-19T08:26:56;5.63;;;5.03;;
12623;SDS011;6377;42.836;23.998;2023-06-19T08:29:24;7.15;;;5.40;;
12623;SDS011;6377;42.836;23.998;2023-06-19T08:31:52;5.43;;;4.72;;
12623;SDS011;6377;42.836;23.998;2023-06-19T08:34:19;6.85;;;5.30;;
12623;SDS011;6377;42.836;23.998;2023-06-19T08:36:47;6.22;;;5.10;;
12623;SDS011;6377;42.836;23.998;2023-06-19T08:39:14;6.35;;;4.90;;
12623;SDS011;6377;42.836;23.998;2023-06-19T08:41:41;6.00;;;5.40;;
12623;SDS011;6377;42.836;23.998;2023-06-19T08:44:09;6.43;;;4.82;;
12623;SDS011;6377;42.836;23.998;2023-06-19T08:46:36;6.10;;;5.30;;
12623;SDS011;6377;42.836;23.998;2023-06-19T08:49:05;6.03;;;4.90;;
12623;SDS011;6377;42.836;23.998;2023-06-19T08:51:33;6.80;;;5.47;;
12623;SDS011;6377;42.836;23.998;2023-06-19T08:54:01;5.43;;;4.93;;
12623;SDS011;6377;42.836;23.998;2023-06-19T08:56:30;6.47;;;4.68;;
12623;SDS011;6377;42.836;23.998;2023-06-19T08:59:07;8.30;;;5.20;;
12623;SDS011;6377;42.836;23.998;2023-06-19T09:01:35;5.43;;;4.93;;
12623;SDS011;6377;42.836;23.998;2023-06-19T09:04:11;6.05;;;5.38;;
12623;SDS011;6377;42.836;23.998;2023-06-19T09:06:48;7.10;;;5.00;;
12623;SDS011;6377;42.836;23.998;2023-06-19T09:09:16;5.82;;;5.32;;
12623;SDS011;6377;42.836;23.998;2023-06-19T09:11:57;6.22;;;5.63;;
12623;SDS011;6377;42.836;23.998;2023-06-19T09:14:32;6.18;;;5.28;;
12623;SDS011;6377;42.836;23.998;2023-06-19T09:17:01;6.40;;;5.53;;
12623;SDS011;6377;42.836;23.998;2023-06-19T09:19:30;6.18;;;4.95;;
12623;SDS011;6377;42.836;23.998;2023-06-19T09:22:00;5.55;;;5.05;;
12623;SDS011;6377;42.836;23.998;2023-06-19T09:24:34;6.28;;;4.70;;
12623;SDS011;6377;42.836;23.998;2023-06-19T09:27:05;5.45;;;4.95;;
12623;SDS011;6377;42.836;23.998;2023-06-19T09:29:35;4.63;;;4.20;;
12623;SDS011;6377;42.836;23.998;2023-06-19T09:32:13;5.38;;;4.88;;
12623;SDS011;6377;42.836;23.998;2023-06-19T09:34:43;5.30;;;4.80;;
12623;SDS011;6377;42.836;23.998;2023-06-19T09:37:10;5.40;;;4.90;;
12623;SDS011;6377;42.836;23.998;2023-06-19T09:39:38;6.43;;;4.90;;
12623;SDS011;6377;42.836;23.998;2023-06-19T09:42:07;5.57;;;5.07;;
12623;SDS011;6377;42.836;23.998;2023-06-19T09:44:38;5.65;;;5.03;;
12623;SDS011;6377;42.836;23.998;2023-06-19T09:47:11;5.65;;;5.15;;
12623;SDS011;6377;42.836;23.998;2023-06-19T09:49:49;6.43;;;5.47;;
12623;SDS011;6377;42.836;23.998;2023-06-19T09:52:20;6.18;;;5.63;;
12623;SDS011;6377;42.836;23.998;2023-06-19T09:54:49;5.70;;;5.20;;
12623;SDS011;6377;42.836;23.998;2023-06-19T09:57:17;7.63;;;5.60;;
12623;SDS011;6377;42.836;23.998;2023-06-19T09:59:45;6.07;;;5.47;;
12623;SDS011;6377;42.836;23.998;2023-06-19T10:02:14;9.85;;;8.88;;
12623;SDS011;6377;42.836;23.998;2023-06-19T10:04:43;6.10;;;5.50;;
12623;SDS011;6377;42.836;23.998;2023-06-19T10:07:16;8.43;;;5.63;;
12623;SDS011;6377;42.836;23.998;2023-06-19T10:09:57;7.03;;;5.63;;
12623;SDS011;6377;42.836;23.998;2023-06-19T10:12:35;7.10;;;5.28;;
12623;SDS011;6377;42.836;23.998;2023-06-19T10:15:10;5.82;;;5.32;;
12623;SDS011;6377;42.836;23.998;2023-06-19T10:17:44;5.53;;;5.00;;
12623;SDS011;6377;42.836;23.998;2023-06-19T10:20:23;5.72;;;5.13;;
12623;SDS011;6377;42.836;23.998;2023-06-19T10:22:56;5.75;;;5.10;;
12623;SDS011;6377;42.836;23.998;2023-06-19T10:25:27;7.82;;;5.50;;
12623;SDS011;6377;42.836;23.998;2023-06-19T10:27:56;5.85;;;4.78;;
12623;SDS011;6377;42.836;23.998;2023-06-19T10:30:24;6.18;;;5.13;;
12623;SDS011;6377;42.836;23.998;2023-06-19T10:32:51;6.45;;;4.68;;
12623;SDS011;6377;42.836;23.998;2023-06-19T10:35:19;5.40;;;4.90;;
12623;SDS011;6377;42.836;23.998;2023-06-19T10:37:49;5.60;;;5.00;;
12623;SDS011;6377;42.836;23.998;2023-06-19T10:40:19;5.20;;;4.70;;
12623;SDS011;6377;42.836;23.998;2023-06-19T10:42:46;5.78;;;5.13;;
12623;SDS011;6377;42.836;23.998;2023-06-19T10:45:14;5.30;;;4.80;;
12623;SDS011;6377;42.836;23.998;2023-06-19T10:47:45;5.25;;;4.75;;
12623;SDS011;6377;42.836;23.998;2023-06-19T10:50:13;5.28;;;4.63;;
12623;SDS011;6377;42.836;23.998;2023-06-19T10:52:41;4.65;;;4.30;;
12623;SDS011;6377;42.836;23.998;2023-06-19T10:55:10;5.32;;;4.85;;
12623;SDS011;6377;42.836;23.998;2023-06-19T10:57:40;4.95;;;4.50;;
12623;SDS011;6377;42.836;23.998;2023-06-19T11:00:11;4.75;;;4.22;;
12623;SDS011;6377;42.836;23.998;2023-06-19T11:02:49;5.65;;;4.38;;
12623;SDS011;6377;42.836;23.998;2023-06-19T11:05:19;4.50;;;4.10;;
12623;SDS011;6377;42.836;23.998;2023-06-19T11:07:50;4.82;;;4.32;;
12623;SDS011;6377;42.836;23.998;2023-06-19T11:10:19;5.47;;;4.40;;
12623;SDS011;6377;42.836;23.998;2023-06-19T11:12:49;5.63;;;4.32;;
12623;SDS011;6377;42.836;23.998;2023-06-19T11:15:27;5.63;;;4.15;;
12623;SDS011;6377;42.836;23.998;2023-06-19T11:17:56;4.70;;;4.20;;
12623;SDS011;6377;42.836;23.998;2023-06-19T11:20:23;5.07;;;4.57;;
12623;SDS011;6377;42.836;23.998;2023-06-19T11:22:54;4.90;;;4.40;;
12623;SDS011;6377;42.836;23.998;2023-06-19T11:25:23;4.50;;;4.10;;
12623;SDS011;6377;42.836;23.998;2023-06-19T11:27:53;4.63;;;4.15;;
12623;SDS011;6377;42.836;23.998;2023-06-19T11:30:29;4.68;;;4.28;;
12623;SDS011;6377;42.836;23.998;2023-06-19T11:32:58;5.63;;;4.07;;
12623;SDS011;6377;42.836;23.998;2023-06-19T11:35:32;5.00;;;4.50;;
12623;SDS011;6377;42.836;23.998;2023-06-19T11:38:01;5.10;;;4.50;;
12623;SDS011;6377;42.836;23.998;2023-06-19T11:40:28;4.75;;;4.35;;
12623;SDS011;6377;42.836;23.998;2023-06-19T11:43:07;4.97;;;4.47;;
12623;SDS011;6377;42.836;23.998;2023-06-19T11:45:44;4.88;;;4.40;;
12623;SDS011;6377;42.836;23.998;2023-06-19T11:48:12;8.15;;;4.00;;
12623;SDS011;6377;42.836;23.998;2023-06-19T11:50:39;4.63;;;4.18;;
12623;SDS011;6377;42.836;23.998;2023-06-19T11:53:07;4.20;;;3.80;;
12623;SDS011;6377;42.836;23.998;2023-06-19T11:55:34;4.60;;;4.20;;
12623;SDS011;6377;42.836;23.998;2023-06-19T11:58:01;4.72;;;4.25;;
12623;SDS011;6377;42.836;23.998;2023-06-19T12:00:30;4.95;;;4.55;;
12623;SDS011;6377;42.836;23.998;2023-06-19T12:02:57;4.50;;;4.10;;
12623;SDS011;6377;42.836;23.998;2023-06-19T12:05:25;4.80;;;4.40;;
12623;SDS011;6377;42.836;23.998;2023-06-19T12:07:52;4.45;;;4.05;;
12623;SDS011;6377;42.836;23.998;2023-06-19T12:10:19;5.07;;;4.60;;
12623;SDS011;6377;42.836;23.998;2023-06-19T12:12:46;4.57;;;4.18;;
12623;SDS011;6377;42.836;23.998;2023-06-19T12:15:14;4.68;;;4.35;;
12623;SDS011;6377;42.836;23.998;2023-06-19T12:17:43;4.47;;;4.07;;
12623;SDS011;6377;42.836;23.998;2023-06-19T12:20:10;4.68;;;4.05;;
12623;SDS011;6377;42.836;23.998;2023-06-19T12:22:38;4.28;;;3.88;;
12623;SDS011;6377;42.836;23.998;2023-06-19T12:25:07;4.63;;;4.22;;
12623;SDS011;6377;42.836;23.998;2023-06-19T12:27:35;6.25;;;4.10;;
12623;SDS011;6377;42.836;23.998;2023-06-19T12:30:04;4.68;;;4.28;;
12623;SDS011;6377;42.836;23.998;2023-06-19T12:32:33;4.30;;;4.00;;
12623;SDS011;6377;42.836;23.998;2023-06-19T12:35:01;4.60;;;4.20;;
12623;SDS011;6377;42.836;23.998;2023-06-19T12:37:29;4.20;;;3.83;;
12623;SDS011;6377;42.836;23.998;2023-06-19T12:39:56;4.25;;;3.85;;
12623;SDS011;6377;42.836;23.998;2023-06-19T12:42:24;4.38;;;3.92;;
12623;SDS011;6377;42.836;23.998;2023-06-19T12:44:51;4.50;;;3.78;;
12623;SDS011;6377;42.836;23.998;2023-06-19T12:47:18;4.05;;;3.70;;
12623;SDS011;6377;42.836;23.998;2023-06-19T12:49:46;5.47;;;3.85;;
12623;SDS011;6377;42.836;23.998;2023-06-19T12:52:14;4.90;;;3.65;;
12623;SDS011;6377;42.836;23.998;2023-06-19T12:54:41;4.03;;;3.67;;
12623;SDS011;6377;42.836;23.998;2023-06-19T12:57:09;4.45;;;4.05;;
12623;SDS011;6377;42.836;23.998;2023-06-19T12:59:36;4.40;;;4.00;;
12623;SDS011;6377;42.836;23.998;2023-06-19T13:02:03;3.78;;;3.47;;
12623;SDS011;6377;42.836;23.998;2023-06-19T13:04:30;4.45;;;3.40;;
12623;SDS011;6377;42.836;23.998;2023-06-19T13:06:57;4.28;;;3.90;;
12623;SDS011;6377;42.836;23.998;2023-06-19T13:09:26;4.25;;;3.85;;
12623;SDS011;6377;42.836;23.998;2023-06-19T13:11:53;4.20;;;3.83;;
12623;SDS011;6377;42.836;23.998;2023-06-19T13:14:20;4.90;;;3.92;;
12623;SDS011;6377;42.836;23.998;2023-06-19T13:16:48;4.07;;;3.67;;
12623;SDS011;6377;42.836;23.998;2023-06-19T13:19:15;4.32;;;3.88;;
12623;SDS011;6377;42.836;23.998;2023-06-19T13:21:42;4.50;;;3.80;;
12623;SDS011;6377;42.836;23.998;2023-06-19T13:24:10;4.63;;;3.90;;
12623;SDS011;6377;42.836;23.998;2023-06-19T13:26:39;5.47;;;3.60;;
12623;SDS011;6377;42.836;23.998;2023-06-19T13:29:06;5.22;;;3.92;;
12623;SDS011;6377;42.836;23.998;2023-06-19T13:31:33;4.97;;;3.72;;
12623;SDS011;6377;42.836;23.998;2023-06-19T13:34:00;4.32;;;3.90;;
12623;SDS011;6377;42.836;23.998;2023-06-19T13:36:28;4.10;;;3.55;;
12623;SDS011;6377;42.836;23.998;2023-06-19T13:38:55;3.83;;;3.53;;
12623;SDS011;6377;42.836;23.998;2023-06-19T13:41:22;4.22;;;3.50;;
12623;SDS011;6377;42.836;23.998;2023-06-19T13:43:51;4.68;;;3.42;;
12623;SDS011;6377;42.836;23.998;2023-06-19T13:46:19;4.13;;;3.75;;
12623;SDS011;6377;42.836;23.998;2023-06-19T13:48:47;6.78;;;3.50;;
12623;SDS011;6377;42.836;23.998;2023-06-19T13:51:16;4.00;;;3.60;;
12623;SDS011;6377;42.836;23.998;2023-06-19T13:53:43;5.93;;;4.32;;
12623;SDS011;6377;42.836;23.998;2023-06-19T13:56:10;8.90;;;4.45;;
12623;SDS011;6377;42.836;23.998;2023-06-19T13:58:38;3.92;;;3.63;;
12623;SDS011;6377;42.836;23.998;2023-06-19T14:01:07;4.90;;;3.83;;
12623;SDS011;6377;42.836;23.998;2023-06-19T14:03:36;4.47;;;4.07;;
12623;SDS011;6377;42.836;23.998;2023-06-19T14:06:04;6.32;;;3.90;;
12623;SDS011;6377;42.836;23.998;2023-06-19T14:08:31;4.03;;;3.65;;
12623;SDS011;6377;42.836;23.998;2023-06-19T14:10:59;4.53;;;3.40;;
12623;SDS011;6377;42.836;23.998;2023-06-19T14:13:26;4.00;;;3.60;;
12623;SDS011;6377;42.836;23.998;2023-06-19T14:15:53;7.65;;;4.10;;
12623;SDS011;6377;42.836;23.998;2023-06-19T14:18:22;4.00;;;3.63;;
12623;SDS011;6377;42.836;23.998;2023-06-19T14:20:50;5.10;;;3.58;;
12623;SDS011;6377;42.836;23.998;2023-06-19T14:23:17;3.80;;;3.50;;
12623;SDS011;6377;42.836;23.998;2023-06-19T14:25:44;3.67;;;3.25;;
12623;SDS011;6377;42.836;23.998;2023-06-19T14:28:12;3.70;;;3.30;;
12623;SDS011;6377;42.836;23.998;2023-06-19T14:30:40;4.05;;;3.55;;
12623;SDS011;6377;42.836;23.998;2023-06-19T14:33:07;3.88;;;3.50;;
12623;SDS011;6377;42.836;23.998;2023-06-19T14:35:41;3.90;;;3.50;;
12623;SDS011;6377;42.836;23.998;2023-06-19T14:38:11;6.30;;;3.53;;
12623;SDS011;6377;42.836;23.998;2023-06-19T14:40:38;4.15;;;3.20;;
12623;SDS011;6377;42.836;23.998;2023-06-19T14:43:06;4.75;;;3.47;;
12623;SDS011;6377;42.836;23.998;2023-06-19T14:45:34;4.60;;;3.58;;
12623;SDS011;6377;42.836;23.998;2023-06-19T14:48:01;7.03;;;3.80;;
12623;SDS011;6377;42.836;23.998;2023-06-19T14:50:28;4.43;;;3.50;;
12623;SDS011;6377;42.836;23.998;2023-06-19T14:52:57;4.20;;;3.80;;